Amiret, Minnesota
Current Conditions -  °F | °C
As of 3:33 AM on Monday 20 Oct 2014 (Local Time) from KTKC Reporting Station
Clear Clear  
Wind Chill: 44°   Ceiling: Unl
Heat Index: 47°   Visibility: 10mi
Dew Point: 39°   Wind: 7mph
Humidity: 72%   Direction: 260°W
Pressure: 29.98"   Gusts: NA
Location:  44.2253°N, 95.6512°W
Report Text: KTKC 200833Z AUTO 26006KT 10SM CLR 09/04 A2998 RMK AO2 T00850038
Loading
Personal Weather Stations






























Interactive Weather Map New forecast layout! Learn more

10-Day Weather Forecast

Advertisements
Track Severe Weather on mobile